Eko 4 — SVAR8 — position and weather

sailwx.info

Track history (hours):
 
Tides and Currents Weather Stations Pressure Air Temp Water Temp Dewpoint Dewpoint Depression Visibility Wind Speed Wind Dir Waves Ship Positions

Eko 4

Last reported at 2017-May-22 11:47 UTC. Time now 2017-May-22 19:18 UTC.
Position N 37°54' E 023°06'.

Length 88 m; draft 5.5 m.

Type: Ship (hazmat cat A). MMSI: 240912000.

Date/timePositionNaut miles runAvg speedWind from/ knotsBaromVisibWave heightAir tempDewpointWater temp
2017-May-22 11:47N 37°54' E 023°06'2 6.8
2017-May-22 11:30N 37°53' E 023°08'5 9.6
2017-May-22 11:00N 37°52' E 023°14'5 9.7
2017-May-22 10:30N 37°51' E 023°20'510.0
2017-May-22 10:00N 37°50' E 023°26'510.1
2017-May-22 09:30N 37°50' E 023°33'5 9.0
2017-May-22 09:00N 37°51' E 023°38'5 9.7
2017-May-22 08:30N 37°46' E 023°41'5 9.9
2017-May-22 08:01N 37°42' E 023°45'51 9.4
2017-May-22 02:32N 37°22' E 024°44'0 7.5
2017-May-22 02:31N 37°22' E 024°44'4 7.5
2017-May-22 02:00N 37°20' E 024°49'4 7.3
2017-May-22 01:30N 37°19' E 024°53'5 9.4
2017-May-22 01:00N 37°19' E 024°59'510.4
2017-May-22 00:31N 37°18' E 025°05'510.4
2017-May-22 00:01N 37°17' E 025°12'510.6
2017-May-21 23:31N 37°16' E 025°18'510.4
2017-May-21 23:00N 37°16' E 025°25'810.2
2017-May-21 22:16N 37°14' E 025°34'410.1
2017-May-21 21:54N 37°13' E 025°39'410.3
2017-May-21 21:30N 37°12' E 025°43'  
2017-May-17 13:11N 37°37' E 023°47'210.0
2017-May-17 13:00N 37°38' E 023°45'510.0
2017-May-17 12:30N 37°42' E 023°41'510.3
2017-May-17 12:00N 37°47' E 023°39'510.4
2017-May-17 11:30N 37°51' E 023°36'5 9.0
2017-May-17 11:01N 37°55' E 023°32'0 0.4
2017-May-17 10:30N 37°55' E 023°33'0 0.0
2017-May-17 10:00N 37°55' E 023°33'0 0.0
2017-May-17 09:30N 37°55' E 023°33'0 0.0
2017-May-17 09:00N 37°55' E 023°33'0 0.0
2017-May-17 08:27N 37°55' E 023°33'0 0.0
2017-May-17 07:51N 37°55' E 023°33'0 0.2
2017-May-17 07:27N 37°55' E 023°33'1 3.4
2017-May-17 07:00N 37°55' E 023°34'2 4.1
2017-May-17 06:31N 37°57' E 023°35'4 8.1
2017-May-17 06:00N 38°00' E 023°33'1 2.7
2017-May-17 05:28N 38°01' E 023°31'0 0.0
2017-May-17 04:58N 38°01' E 023°31'0 0.0
2017-May-17 04:28N 38°01' E 023°31'0 0.0
2017-May-17 03:58N 38°01' E 023°31'0 0.0
2017-May-17 03:28N 38°01' E 023°31'0 0.0
2017-May-17 02:58N 38°01' E 023°31'0 0.0
2017-May-17 02:28N 38°01' E 023°31'0 0.0
2017-May-17 01:58N 38°01' E 023°31'0 0.0
2017-May-17 01:28N 38°01' E 023°31'0 0.0
2017-May-17 00:55N 38°01' E 023°31'0 0.0
2017-May-17 00:28N 38°01' E 023°31'0 0.0
2017-May-16 23:58N 38°01' E 023°31'0 0.0
2017-May-16 23:28N 38°01' E 023°31'0 0.0
2017-May-16 22:58N 38°01' E 023°31'0 0.0
2017-May-16 22:28N 38°01' E 023°31'0 0.4
2017-May-16 22:00N 38°01' E 023°32'3 5.9
2017-May-16 21:30N 38°02' E 023°35'0 0.0
2017-May-16 09:35N 38°02' E 023°36'0 3.0
2017-May-16 09:30N 38°01' E 023°35'2 4.2
2017-May-16 09:01N 38°01' E 023°33'3 5.4
2017-May-16 08:30N 37°58' E 023°33'4 7.7
2017-May-16 08:00N 37°55' E 023°36'4 8.5
2017-May-16 07:30N 37°51' E 023°38'5 9.4
2017-May-16 07:00N 37°47' E 023°41'5 9.6
2017-May-16 06:30N 37°43' E 023°44'  
2017-May-13 13:47N 37°14' E 024°18'3 8.9
2017-May-13 13:30N 37°15' E 024°15'4 8.8
2017-May-13 13:00N 37°18' E 024°11'4 8.8
2017-May-13 12:31N 37°21' E 024°07'4 8.9
2017-May-13 12:00N 37°25' E 024°04'5 9.3
2017-May-13 11:26N 37°29' E 023°60'4 9.6
2017-May-13 11:00N 37°32' E 023°56'5 9.6
2017-May-13 10:30N 37°35' E 023°51'5 9.5
2017-May-13 10:01N 37°37' E 023°46'5 9.0
2017-May-13 09:31N 37°41' E 023°42'5 9.6
2017-May-13 09:01N 37°45' E 023°40'5 9.6
2017-May-13 08:31N 37°49' E 023°36'5 9.6
2017-May-13 08:00N 37°50' E 023°30'5 9.8
2017-May-13 07:30N 37°51' E 023°24'5 9.8
2017-May-13 07:01N 37°52' E 023°18'510.0
2017-May-13 06:30N 37°53' E 023°12'  
Track history (hours):
 
Tides and Currents Weather Stations Pressure Air Temp Water Temp Dewpoint Dewpoint Depression Visibility Wind Speed Wind Dir Waves Ship Positions

Eko 4

Last reported at 2017-May-22 11:47 UTC. Time now 2017-May-22 19:18 UTC.
Position N 37°54' E 023°06'.

Length 88 m; draft 5.5 m.

Type: Ship (hazmat cat A). MMSI: 240912000.

Date/timePositionNaut miles runAvg speedWind from/ knotsBaromVisibWave heightAir tempDewpointWater temp
2017-May-22 11:47N 37°54' E 023°06'2 6.8
2017-May-22 11:30N 37°53' E 023°08'5 9.6
2017-May-22 11:00N 37°52' E 023°14'5 9.7
2017-May-22 10:30N 37°51' E 023°20'510.0
2017-May-22 10:00N 37°50' E 023°26'510.1
2017-May-22 09:30N 37°50' E 023°33'5 9.0
2017-May-22 09:00N 37°51' E 023°38'5 9.7
2017-May-22 08:30N 37°46' E 023°41'5 9.9
2017-May-22 08:01N 37°42' E 023°45'51 9.4
2017-May-22 02:32N 37°22' E 024°44'0 7.5
2017-May-22 02:31N 37°22' E 024°44'4 7.5
2017-May-22 02:00N 37°20' E 024°49'4 7.3
2017-May-22 01:30N 37°19' E 024°53'5 9.4
2017-May-22 01:00N 37°19' E 024°59'510.4
2017-May-22 00:31N 37°18' E 025°05'510.4
2017-May-22 00:01N 37°17' E 025°12'510.6
2017-May-21 23:31N 37°16' E 025°18'510.4
2017-May-21 23:00N 37°16' E 025°25'810.2
2017-May-21 22:16N 37°14' E 025°34'410.1
2017-May-21 21:54N 37°13' E 025°39'410.3
2017-May-21 21:30N 37°12' E 025°43'  
2017-May-17 13:11N 37°37' E 023°47'210.0
2017-May-17 13:00N 37°38' E 023°45'510.0
2017-May-17 12:30N 37°42' E 023°41'510.3
2017-May-17 12:00N 37°47' E 023°39'510.4
2017-May-17 11:30N 37°51' E 023°36'5 9.0
2017-May-17 11:01N 37°55' E 023°32'0 0.4
2017-May-17 10:30N 37°55' E 023°33'0 0.0
2017-May-17 10:00N 37°55' E 023°33'0 0.0
2017-May-17 09:30N 37°55' E 023°33'0 0.0
2017-May-17 09:00N 37°55' E 023°33'0 0.0
2017-May-17 08:27N 37°55' E 023°33'0 0.0
2017-May-17 07:51N 37°55' E 023°33'0 0.2
2017-May-17 07:27N 37°55' E 023°33'1 3.4
2017-May-17 07:00N 37°55' E 023°34'2 4.1
2017-May-17 06:31N 37°57' E 023°35'4 8.1
2017-May-17 06:00N 38°00' E 023°33'1 2.7
2017-May-17 05:28N 38°01' E 023°31'0 0.0
2017-May-17 04:58N 38°01' E 023°31'0 0.0
2017-May-17 04:28N 38°01' E 023°31'0 0.0
2017-May-17 03:58N 38°01' E 023°31'0 0.0
2017-May-17 03:28N 38°01' E 023°31'0 0.0
2017-May-17 02:58N 38°01' E 023°31'0 0.0
2017-May-17 02:28N 38°01' E 023°31'0 0.0
2017-May-17 01:58N 38°01' E 023°31'0 0.0
2017-May-17 01:28N 38°01' E 023°31'0 0.0
2017-May-17 00:55N 38°01' E 023°31'0 0.0
2017-May-17 00:28N 38°01' E 023°31'0 0.0
2017-May-16 23:58N 38°01' E 023°31'0 0.0
2017-May-16 23:28N 38°01' E 023°31'0 0.0
2017-May-16 22:58N 38°01' E 023°31'0 0.0
2017-May-16 22:28N 38°01' E 023°31'0 0.4
2017-May-16 22:00N 38°01' E 023°32'3 5.9
2017-May-16 21:30N 38°02' E 023°35'0 0.0
2017-May-16 09:35N 38°02' E 023°36'0 3.0
2017-May-16 09:30N 38°01' E 023°35'2 4.2
2017-May-16 09:01N 38°01' E 023°33'3 5.4
2017-May-16 08:30N 37°58' E 023°33'4 7.7
2017-May-16 08:00N 37°55' E 023°36'4 8.5
2017-May-16 07:30N 37°51' E 023°38'5 9.4
2017-May-16 07:00N 37°47' E 023°41'5 9.6
2017-May-16 06:30N 37°43' E 023°44'  
2017-May-13 13:47N 37°14' E 024°18'3 8.9
2017-May-13 13:30N 37°15' E 024°15'4 8.8
2017-May-13 13:00N 37°18' E 024°11'4 8.8
2017-May-13 12:31N 37°21' E 024°07'4 8.9
2017-May-13 12:00N 37°25' E 024°04'5 9.3
2017-May-13 11:26N 37°29' E 023°60'4 9.6
2017-May-13 11:00N 37°32' E 023°56'5 9.6
2017-May-13 10:30N 37°35' E 023°51'5 9.5
2017-May-13 10:01N 37°37' E 023°46'5 9.0
2017-May-13 09:31N 37°41' E 023°42'5 9.6
2017-May-13 09:01N 37°45' E 023°40'5 9.6
2017-May-13 08:31N 37°49' E 023°36'5 9.6
2017-May-13 08:00N 37°50' E 023°30'5 9.8
2017-May-13 07:30N 37°51' E 023°24'5 9.8
2017-May-13 07:01N 37°52' E 023°18'510.0
2017-May-13 06:30N 37°53' E 023°12'  

Dump ship's entire track history